sensor_id;sensor_type;location;lat;lon;timestamp;temperature;humidity
31725;DHT22;18306;40.960;14.836;2022-08-21T00:01:25;22.40;99.90
31725;DHT22;18306;40.960;14.836;2022-08-21T00:03:52;22.30;99.90
31725;DHT22;18306;40.960;14.836;2022-08-21T00:06:20;22.20;99.90
31725;DHT22;18306;40.960;14.836;2022-08-21T00:08:51;22.10;99.90
31725;DHT22;18306;40.960;14.836;2022-08-21T00:11:18;22.10;99.90
31725;DHT22;18306;40.960;14.836;2022-08-21T00:13:46;22.10;99.90
31725;DHT22;18306;40.960;14.836;2022-08-21T00:16:13;22.00;99.90
31725;DHT22;18306;40.960;14.836;2022-08-21T00:18:41;22.00;99.90
31725;DHT22;18306;40.960;14.836;2022-08-21T00:21:10;22.00;99.90
31725;DHT22;18306;40.960;14.836;2022-08-21T00:23:38;22.00;99.90
31725;DHT22;18306;40.960;14.836;2022-08-21T00:26:06;21.90;99.90
31725;DHT22;18306;40.960;14.836;2022-08-21T00:28:33;21.90;99.90
31725;DHT22;18306;40.960;14.836;2022-08-21T00:31:01;21.80;99.90
31725;DHT22;18306;40.960;14.836;2022-08-21T00:33:31;21.80;99.90
31725;DHT22;18306;40.960;14.836;2022-08-21T00:35:58;21.80;99.90
31725;DHT22;18306;40.960;14.836;2022-08-21T00:38:26;21.80;99.90
31725;DHT22;18306;40.960;14.836;2022-08-21T00:40:57;21.90;99.90
31725;DHT22;18306;40.960;14.836;2022-08-21T00:43:32;21.80;99.90
31725;DHT22;18306;40.960;14.836;2022-08-21T00:46:01;21.80;99.90
31725;DHT22;18306;40.960;14.836;2022-08-21T00:48:31;21.80;99.90
31725;DHT22;18306;40.960;14.836;2022-08-21T00:51:07;21.80;99.90
31725;DHT22;18306;40.960;14.836;2022-08-21T00:53:40;21.70;99.90
31725;DHT22;18306;40.960;14.836;2022-08-21T00:56:09;21.70;99.90
31725;DHT22;18306;40.960;14.836;2022-08-21T00:58:39;21.70;99.90
31725;DHT22;18306;40.960;14.836;2022-08-21T01:01:08;21.80;99.90
31725;DHT22;18306;40.960;14.836;2022-08-21T01:03:36;21.80;99.90
31725;DHT22;18306;40.960;14.836;2022-08-21T01:06:05;21.90;99.90
31725;DHT22;18306;40.960;14.836;2022-08-21T01:08:33;21.80;99.90
31725;DHT22;18306;40.960;14.836;2022-08-21T01:11:01;21.80;99.90
31725;DHT22;18306;40.960;14.836;2022-08-21T01:13:30;21.80;99.90
31725;DHT22;18306;40.960;14.836;2022-08-21T01:16:00;21.80;99.90
31725;DHT22;18306;40.960;14.836;2022-08-21T01:18:29;21.90;99.90
31725;DHT22;18306;40.960;14.836;2022-08-21T01:21:08;22.00;99.90
31725;DHT22;18306;40.960;14.836;2022-08-21T01:23:38;22.00;99.90
31725;DHT22;18306;40.960;14.836;2022-08-21T01:26:06;22.00;99.90
31725;DHT22;18306;40.960;14.836;2022-08-21T01:28:44;21.80;99.90
31725;DHT22;18306;40.960;14.836;2022-08-21T01:31:17;21.80;99.90
31725;DHT22;18306;40.960;14.836;2022-08-21T01:33:46;21.70;99.90
31725;DHT22;18306;40.960;14.836;2022-08-21T01:36:13;21.60;99.90
31725;DHT22;18306;40.960;14.836;2022-08-21T01:38:40;21.50;99.90
31725;DHT22;18306;40.960;14.836;2022-08-21T01:41:08;21.50;99.90
31725;DHT22;18306;40.960;14.836;2022-08-21T01:43:35;21.50;99.90
31725;DHT22;18306;40.960;14.836;2022-08-21T01:46:03;21.40;99.90
31725;DHT22;18306;40.960;14.836;2022-08-21T01:48:30;21.40;99.90
31725;DHT22;18306;40.960;14.836;2022-08-21T01:50:58;21.40;99.90
31725;DHT22;18306;40.960;14.836;2022-08-21T01:53:25;21.30;99.90
31725;DHT22;18306;40.960;14.836;2022-08-21T01:55:53;21.30;99.90
31725;DHT22;18306;40.960;14.836;2022-08-21T01:58:20;21.30;99.90
31725;DHT22;18306;40.960;14.836;2022-08-21T02:00:47;21.30;99.90
31725;DHT22;18306;40.960;14.836;2022-08-21T02:03:20;21.40;99.90
31725;DHT22;18306;40.960;14.836;2022-08-21T02:05:47;21.40;99.90
31725;DHT22;18306;40.960;14.836;2022-08-21T02:08:14;21.40;99.90
31725;DHT22;18306;40.960;14.836;2022-08-21T02:10:41;21.40;99.90
31725;DHT22;18306;40.960;14.836;2022-08-21T02:13:09;21.50;99.90
31725;DHT22;18306;40.960;14.836;2022-08-21T02:15:36;21.50;99.90
31725;DHT22;18306;40.960;14.836;2022-08-21T02:18:05;21.40;99.90
31725;DHT22;18306;40.960;14.836;2022-08-21T02:20:44;21.40;99.90
31725;DHT22;18306;40.960;14.836;2022-08-21T02:23:14;21.30;99.90
31725;DHT22;18306;40.960;14.836;2022-08-21T02:25:42;21.30;99.90
31725;DHT22;18306;40.960;14.836;2022-08-21T02:28:12;21.30;99.90
31725;DHT22;18306;40.960;14.836;2022-08-21T02:30:42;21.30;99.90
31725;DHT22;18306;40.960;14.836;2022-08-21T02:33:11;21.30;99.90
31725;DHT22;18306;40.960;14.836;2022-08-21T02:35:40;21.30;99.90
31725;DHT22;18306;40.960;14.836;2022-08-21T02:38:21;21.20;99.90
31725;DHT22;18306;40.960;14.836;2022-08-21T02:40:50;21.10;99.90
31725;DHT22;18306;40.960;14.836;2022-08-21T02:43:21;21.00;99.90
31725;DHT22;18306;40.960;14.836;2022-08-21T02:45:50;20.90;99.90
31725;DHT22;18306;40.960;14.836;2022-08-21T02:48:20;20.90;99.90
31725;DHT22;18306;40.960;14.836;2022-08-21T02:50:53;20.80;99.90
31725;DHT22;18306;40.960;14.836;2022-08-21T02:53:21;20.70;99.90
31725;DHT22;18306;40.960;14.836;2022-08-21T02:55:50;20.70;99.90
31725;DHT22;18306;40.960;14.836;2022-08-21T02:58:21;20.60;99.90
31725;DHT22;18306;40.960;14.836;2022-08-21T03:00:48;20.50;99.90
31725;DHT22;18306;40.960;14.836;2022-08-21T03:03:16;20.60;99.90
31725;DHT22;18306;40.960;14.836;2022-08-21T03:05:44;20.60;99.90
31725;DHT22;18306;40.960;14.836;2022-08-21T03:08:13;20.60;99.90
31725;DHT22;18306;40.960;14.836;2022-08-21T03:10:43;20.50;99.90
31725;DHT22;18306;40.960;14.836;2022-08-21T03:13:11;20.50;99.90
31725;DHT22;18306;40.960;14.836;2022-08-21T03:15:39;20.40;99.90
31725;DHT22;18306;40.960;14.836;2022-08-21T03:18:08;20.50;99.90
31725;DHT22;18306;40.960;14.836;2022-08-21T03:20:36;20.50;99.90
31725;DHT22;18306;40.960;14.836;2022-08-21T03:23:04;20.60;99.90
31725;DHT22;18306;40.960;14.836;2022-08-21T03:25:33;20.70;99.90
31725;DHT22;18306;40.960;14.836;2022-08-21T03:28:03;20.60;99.90
31725;DHT22;18306;40.960;14.836;2022-08-21T03:30:31;20.60;99.90
31725;DHT22;18306;40.960;14.836;2022-08-21T03:32:59;20.60;99.90
31725;DHT22;18306;40.960;14.836;2022-08-21T03:35:27;20.50;99.90
31725;DHT22;18306;40.960;14.836;2022-08-21T03:37:55;20.40;99.90
31725;DHT22;18306;40.960;14.836;2022-08-21T03:40:24;20.50;99.90
31725;DHT22;18306;40.960;14.836;2022-08-21T03:42:53;20.50;99.90
31725;DHT22;18306;40.960;14.836;2022-08-21T03:45:21;20.50;99.90
31725;DHT22;18306;40.960;14.836;2022-08-21T03:47:59;20.60;99.90
31725;DHT22;18306;40.960;14.836;2022-08-21T03:53:44;20.40;99.90
31725;DHT22;18306;40.960;14.836;2022-08-21T03:56:20;20.30;99.90
31725;DHT22;18306;40.960;14.836;2022-08-21T03:58:56;20.30;99.90
31725;DHT22;18306;40.960;14.836;2022-08-21T04:01:28;20.40;99.90
31725;DHT22;18306;40.960;14.836;2022-08-21T04:04:05;20.40;99.90
31725;DHT22;18306;40.960;14.836;2022-08-21T04:06:35;20.40;99.90
31725;DHT22;18306;40.960;14.836;2022-08-21T04:09:02;20.40;99.90
31725;DHT22;18306;40.960;14.836;2022-08-21T04:11:29;20.50;99.90
31725;DHT22;18306;40.960;14.836;2022-08-21T04:13:57;20.50;99.90
31725;DHT22;18306;40.960;14.836;2022-08-21T04:16:24;20.40;99.90
31725;DHT22;18306;40.960;14.836;2022-08-21T04:18:51;20.40;99.90
31725;DHT22;18306;40.960;14.836;2022-08-21T04:21:19;20.40;99.90
31725;DHT22;18306;40.960;14.836;2022-08-21T04:23:46;20.30;99.90
31725;DHT22;18306;40.960;14.836;2022-08-21T04:26:13;20.30;99.90
31725;DHT22;18306;40.960;14.836;2022-08-21T04:28:41;20.30;99.90
31725;DHT22;18306;40.960;14.836;2022-08-21T04:31:09;20.20;99.90
31725;DHT22;18306;40.960;14.836;2022-08-21T04:33:36;20.20;99.90
31725;DHT22;18306;40.960;14.836;2022-08-21T04:36:04;20.20;99.90
31725;DHT22;18306;40.960;14.836;2022-08-21T04:38:32;20.30;99.90
31725;DHT22;18306;40.960;14.836;2022-08-21T04:40:59;20.40;99.90
31725;DHT22;18306;40.960;14.836;2022-08-21T04:43:26;20.40;99.90
31725;DHT22;18306;40.960;14.836;2022-08-21T04:45:55;20.40;99.90
31725;DHT22;18306;40.960;14.836;2022-08-21T04:48:22;20.30;99.90
31725;DHT22;18306;40.960;14.836;2022-08-21T04:50:58;20.30;99.90
31725;DHT22;18306;40.960;14.836;2022-08-21T04:53:37;20.40;99.90
31725;DHT22;18306;40.960;14.836;2022-08-21T04:56:09;20.40;99.90
31725;DHT22;18306;40.960;14.836;2022-08-21T04:58:38;20.40;99.90
31725;DHT22;18306;40.960;14.836;2022-08-21T05:01:09;20.50;99.90
31725;DHT22;18306;40.960;14.836;2022-08-21T05:03:38;20.50;99.90
31725;DHT22;18306;40.960;14.836;2022-08-21T05:06:10;20.60;99.90
31725;DHT22;18306;40.960;14.836;2022-08-21T05:08:40;20.70;99.90
31725;DHT22;18306;40.960;14.836;2022-08-21T05:11:08;20.70;99.90
31725;DHT22;18306;40.960;14.836;2022-08-21T05:13:35;20.70;99.90
31725;DHT22;18306;40.960;14.836;2022-08-21T05:16:03;20.60;99.90
31725;DHT22;18306;40.960;14.836;2022-08-21T05:18:31;20.50;99.90
31725;DHT22;18306;40.960;14.836;2022-08-21T05:20:59;20.50;99.90
31725;DHT22;18306;40.960;14.836;2022-08-21T05:23:26;20.50;99.90
31725;DHT22;18306;40.960;14.836;2022-08-21T05:25:54;20.50;99.90
31725;DHT22;18306;40.960;14.836;2022-08-21T05:28:22;20.70;99.90
31725;DHT22;18306;40.960;14.836;2022-08-21T05:30:50;20.70;99.90
31725;DHT22;18306;40.960;14.836;2022-08-21T05:33:19;20.70;99.90
31725;DHT22;18306;40.960;14.836;2022-08-21T05:35:53;20.70;99.90
31725;DHT22;18306;40.960;14.836;2022-08-21T05:38:25;20.70;99.90
31725;DHT22;18306;40.960;14.836;2022-08-21T05:40:54;20.80;99.90
31725;DHT22;18306;40.960;14.836;2022-08-21T05:43:21;20.80;99.90
31725;DHT22;18306;40.960;14.836;2022-08-21T05:45:49;20.90;99.90
31725;DHT22;18306;40.960;14.836;2022-08-21T05:48:22;21.00;99.90
31725;DHT22;18306;40.960;14.836;2022-08-21T05:50:51;21.00;99.90
31725;DHT22;18306;40.960;14.836;2022-08-21T05:53:20;21.00;99.90
31725;DHT22;18306;40.960;14.836;2022-08-21T05:55:48;21.10;99.90
31725;DHT22;18306;40.960;14.836;2022-08-21T05:58:18;21.20;99.90
31725;DHT22;18306;40.960;14.836;2022-08-21T06:00:48;21.20;99.90
31725;DHT22;18306;40.960;14.836;2022-08-21T06:03:24;21.30;99.90
31725;DHT22;18306;40.960;14.836;2022-08-21T06:05:52;21.50;99.90
31725;DHT22;18306;40.960;14.836;2022-08-21T06:08:20;21.70;99.90
31725;DHT22;18306;40.960;14.836;2022-08-21T06:10:49;21.90;99.90
31725;DHT22;18306;40.960;14.836;2022-08-21T06:13:19;22.00;99.90
31725;DHT22;18306;40.960;14.836;2022-08-21T06:15:47;22.20;99.90
31725;DHT22;18306;40.960;14.836;2022-08-21T06:18:15;22.20;99.90
31725;DHT22;18306;40.960;14.836;2022-08-21T06:20:42;22.40;99.90
31725;DHT22;18306;40.960;14.836;2022-08-21T06:23:10;22.50;99.90
31725;DHT22;18306;40.960;14.836;2022-08-21T06:25:37;22.60;99.90
31725;DHT22;18306;40.960;14.836;2022-08-21T06:28:07;22.80;99.90
31725;DHT22;18306;40.960;14.836;2022-08-21T06:30:35;23.20;99.90
31725;DHT22;18306;40.960;14.836;2022-08-21T06:33:03;23.40;99.90
31725;DHT22;18306;40.960;14.836;2022-08-21T06:35:31;23.70;99.90
31725;DHT22;18306;40.960;14.836;2022-08-21T06:37:58;23.90;99.90
31725;DHT22;18306;40.960;14.836;2022-08-21T06:40:27;24.20;99.90
31725;DHT22;18306;40.960;14.836;2022-08-21T06:42:54;24.70;99.90
31725;DHT22;18306;40.960;14.836;2022-08-21T06:45:22;25.00;99.90
31725;DHT22;18306;40.960;14.836;2022-08-21T06:47:49;25.20;99.90
31725;DHT22;18306;40.960;14.836;2022-08-21T06:50:16;25.60;99.90
31725;DHT22;18306;40.960;14.836;2022-08-21T06:52:43;25.70;99.90
31725;DHT22;18306;40.960;14.836;2022-08-21T06:55:11;25.90;99.90
31725;DHT22;18306;40.960;14.836;2022-08-21T06:57:38;26.00;99.90
31725;DHT22;18306;40.960;14.836;2022-08-21T07:00:08;26.20;99.90
31725;DHT22;18306;40.960;14.836;2022-08-21T07:02:36;26.40;99.90
31725;DHT22;18306;40.960;14.836;2022-08-21T07:05:04;26.50;99.90
31725;DHT22;18306;40.960;14.836;2022-08-21T07:07:32;26.60;99.90
31725;DHT22;18306;40.960;14.836;2022-08-21T07:09:59;26.70;99.90
31725;DHT22;18306;40.960;14.836;2022-08-21T07:12:26;26.60;99.90
31725;DHT22;18306;40.960;14.836;2022-08-21T07:14:53;26.70;99.90
31725;DHT22;18306;40.960;14.836;2022-08-21T07:17:21;26.90;99.90
31725;DHT22;18306;40.960;14.836;2022-08-21T07:19:48;27.10;99.90
31725;DHT22;18306;40.960;14.836;2022-08-21T07:22:19;27.10;99.90
31725;DHT22;18306;40.960;14.836;2022-08-21T07:24:47;27.10;99.90
31725;DHT22;18306;40.960;14.836;2022-08-21T07:27:14;27.10;99.90
31725;DHT22;18306;40.960;14.836;2022-08-21T07:29:42;27.00;99.90
31725;DHT22;18306;40.960;14.836;2022-08-21T07:32:09;27.00;99.90
31725;DHT22;18306;40.960;14.836;2022-08-21T07:34:36;26.90;99.90
31725;DHT22;18306;40.960;14.836;2022-08-21T07:37:04;26.90;99.90
31725;DHT22;18306;40.960;14.836;2022-08-21T07:39:31;27.10;99.90
31725;DHT22;18306;40.960;14.836;2022-08-21T07:41:58;27.30;99.90
31725;DHT22;18306;40.960;14.836;2022-08-21T07:44:25;27.70;99.90
31725;DHT22;18306;40.960;14.836;2022-08-21T07:46:53;28.40;99.90
31725;DHT22;18306;40.960;14.836;2022-08-21T07:49:20;29.30;99.90
31725;DHT22;18306;40.960;14.836;2022-08-21T07:51:47;30.80;99.90
31725;DHT22;18306;40.960;14.836;2022-08-21T07:54:15;31.90;99.90
31725;DHT22;18306;40.960;14.836;2022-08-21T07:56:42;32.10;99.90
31725;DHT22;18306;40.960;14.836;2022-08-21T07:59:11;32.10;99.90
31725;DHT22;18306;40.960;14.836;2022-08-21T08:01:38;32.40;99.90
31725;DHT22;18306;40.960;14.836;2022-08-21T08:04:09;32.40;99.90
31725;DHT22;18306;40.960;14.836;2022-08-21T08:06:36;32.00;99.90
31725;DHT22;18306;40.960;14.836;2022-08-21T08:09:03;32.00;99.90
31725;DHT22;18306;40.960;14.836;2022-08-21T08:11:30;31.60;99.90
31725;DHT22;18306;40.960;14.836;2022-08-21T08:13:58;31.10;99.90
31725;DHT22;18306;40.960;14.836;2022-08-21T08:16:26;30.70;99.90
31725;DHT22;18306;40.960;14.836;2022-08-21T08:18:54;30.10;99.90
31725;DHT22;18306;40.960;14.836;2022-08-21T08:21:22;29.80;99.90
31725;DHT22;18306;40.960;14.836;2022-08-21T08:23:49;29.50;99.90
31725;DHT22;18306;40.960;14.836;2022-08-21T08:26:17;29.00;99.90
31725;DHT22;18306;40.960;14.836;2022-08-21T08:28:44;29.10;99.90
31725;DHT22;18306;40.960;14.836;2022-08-21T08:31:14;29.00;99.90
31725;DHT22;18306;40.960;14.836;2022-08-21T08:33:42;29.00;99.90
31725;DHT22;18306;40.960;14.836;2022-08-21T08:36:15;29.10;99.90
31725;DHT22;18306;40.960;14.836;2022-08-21T08:38:43;29.20;99.90
31725;DHT22;18306;40.960;14.836;2022-08-21T08:41:18;29.30;99.90
31725;DHT22;18306;40.960;14.836;2022-08-21T08:44:02;29.30;99.90
31725;DHT22;18306;40.960;14.836;2022-08-21T08:46:45;29.30;99.90
31725;DHT22;18306;40.960;14.836;2022-08-21T08:49:24;29.10;99.90
31725;DHT22;18306;40.960;14.836;2022-08-21T08:52:02;28.80;99.90
31725;DHT22;18306;40.960;14.836;2022-08-21T08:54:39;28.70;99.90
31725;DHT22;18306;40.960;14.836;2022-08-21T08:57:16;28.70;99.90
31725;DHT22;18306;40.960;14.836;2022-08-21T08:59:50;28.90;99.90
31725;DHT22;18306;40.960;14.836;2022-08-21T09:02:19;28.70;99.90
31725;DHT22;18306;40.960;14.836;2022-08-21T09:04:51;28.80;99.90
31725;DHT22;18306;40.960;14.836;2022-08-21T09:10:16;28.80;99.90
31725;DHT22;18306;40.960;14.836;2022-08-21T09:13:06;28.90;99.90
31725;DHT22;18306;40.960;14.836;2022-08-21T09:21:41;28.60;99.90
31725;DHT22;18306;40.960;14.836;2022-08-21T09:27:07;29.00;99.90
31725;DHT22;18306;40.960;14.836;2022-08-21T09:29:45;29.00;99.90
31725;DHT22;18306;40.960;14.836;2022-08-21T09:32:22;29.20;97.90
31725;DHT22;18306;40.960;14.836;2022-08-21T09:34:59;29.30;99.40
31725;DHT22;18306;40.960;14.836;2022-08-21T09:37:30;29.40;98.70
31725;DHT22;18306;40.960;14.836;2022-08-21T09:39:59;29.50;97.80
31725;DHT22;18306;40.960;14.836;2022-08-21T09:42:29;29.50;98.40
31725;DHT22;18306;40.960;14.836;2022-08-21T09:45:14;29.50;98.60
31725;DHT22;18306;40.960;14.836;2022-08-21T09:47:42;29.60;98.30
31725;DHT22;18306;40.960;14.836;2022-08-21T09:50:15;29.60;96.30
31725;DHT22;18306;40.960;14.836;2022-08-21T09:52:53;29.40;96.90
31725;DHT22;18306;40.960;14.836;2022-08-21T09:55:31;29.40;97.60
31725;DHT22;18306;40.960;14.836;2022-08-21T09:58:18;29.50;97.80
31725;DHT22;18306;40.960;14.836;2022-08-21T10:00:56;29.60;97.50
31725;DHT22;18306;40.960;14.836;2022-08-21T10:03:24;29.60;98.20
31725;DHT22;18306;40.960;14.836;2022-08-21T10:05:56;29.60;97.00
31725;DHT22;18306;40.960;14.836;2022-08-21T10:08:26;29.80;97.30
31725;DHT22;18306;40.960;14.836;2022-08-21T10:10:57;29.90;96.90
31725;DHT22;18306;40.960;14.836;2022-08-21T10:16:14;29.80;97.10
31725;DHT22;18306;40.960;14.836;2022-08-21T10:19:00;30.00;95.90
31725;DHT22;18306;40.960;14.836;2022-08-21T10:21:41;30.10;97.10
31725;DHT22;18306;40.960;14.836;2022-08-21T10:24:24;30.20;94.80
31725;DHT22;18306;40.960;14.836;2022-08-21T10:32:35;30.20;96.20
31725;DHT22;18306;40.960;14.836;2022-08-21T10:35:24;30.30;93.60
31725;DHT22;18306;40.960;14.836;2022-08-21T10:46:07;30.30;94.50
31725;DHT22;18306;40.960;14.836;2022-08-21T10:48:50;30.40;93.10
31725;DHT22;18306;40.960;14.836;2022-08-21T10:54:07;30.40;93.10
31725;DHT22;18306;40.960;14.836;2022-08-21T10:56:41;30.30;93.10
31725;DHT22;18306;40.960;14.836;2022-08-21T10:59:41;30.40;93.60
31725;DHT22;18306;40.960;14.836;2022-08-21T11:02:33;30.50;93.70
31725;DHT22;18306;40.960;14.836;2022-08-21T11:13:47;30.70;91.40
31725;DHT22;18306;40.960;14.836;2022-08-21T11:30:15;30.30;93.40
31725;DHT22;18306;40.960;14.836;2022-08-21T11:35:47;30.40;92.90
31725;DHT22;18306;40.960;14.836;2022-08-21T11:52:30;31.00;92.40
31725;DHT22;18306;40.960;14.836;2022-08-21T11:55:30;30.80;90.80
31725;DHT22;18306;40.960;14.836;2022-08-21T11:58:59;30.80;91.10
31725;DHT22;18306;40.960;14.836;2022-08-21T12:01:23;30.80;91.90
31725;DHT22;18306;40.960;14.836;2022-08-21T12:04:08;30.90;91.60
31725;DHT22;18306;40.960;14.836;2022-08-21T12:06:41;31.10;92.20
31725;DHT22;18306;40.960;14.836;2022-08-21T12:12:27;31.60;91.60
31725;DHT22;18306;40.960;14.836;2022-08-21T12:18:05;31.70;92.20
31725;DHT22;18306;40.960;14.836;2022-08-21T12:20:44;31.70;90.80
31725;DHT22;18306;40.960;14.836;2022-08-21T12:26:00;31.20;90.00
31725;DHT22;18306;40.960;14.836;2022-08-21T12:28:29;31.20;91.10
31725;DHT22;18306;40.960;14.836;2022-08-21T12:30:58;31.10;91.90
31725;DHT22;18306;40.960;14.836;2022-08-21T12:33:38;31.20;91.40
31725;DHT22;18306;40.960;14.836;2022-08-21T12:36:17;31.30;91.30
31725;DHT22;18306;40.960;14.836;2022-08-21T12:38:56;31.70;90.40
31725;DHT22;18306;40.960;14.836;2022-08-21T12:41:45;31.70;89.40
31725;DHT22;18306;40.960;14.836;2022-08-21T12:44:20;31.50;88.60
31725;DHT22;18306;40.960;14.836;2022-08-21T12:46:53;31.40;90.00
31725;DHT22;18306;40.960;14.836;2022-08-21T12:49:47;31.40;91.00
31725;DHT22;18306;40.960;14.836;2022-08-21T12:52:25;31.40;91.00
31725;DHT22;18306;40.960;14.836;2022-08-21T12:54:55;31.30;91.10
31725;DHT22;18306;40.960;14.836;2022-08-21T12:57:31;31.40;90.90
31725;DHT22;18306;40.960;14.836;2022-08-21T13:00:12;31.30;90.10
31725;DHT22;18306;40.960;14.836;2022-08-21T13:03:00;31.30;90.90
31725;DHT22;18306;40.960;14.836;2022-08-21T13:05:37;31.30;91.60
31725;DHT22;18306;40.960;14.836;2022-08-21T13:08:08;31.40;90.30
31725;DHT22;18306;40.960;14.836;2022-08-21T13:10:44;31.60;90.40
31725;DHT22;18306;40.960;14.836;2022-08-21T13:13:22;31.60;92.00
31725;DHT22;18306;40.960;14.836;2022-08-21T13:16:03;31.40;90.00
31725;DHT22;18306;40.960;14.836;2022-08-21T13:18:35;31.30;90.40
31725;DHT22;18306;40.960;14.836;2022-08-21T13:21:14;31.00;91.00
31725;DHT22;18306;40.960;14.836;2022-08-21T13:23:42;30.70;91.20
31725;DHT22;18306;40.960;14.836;2022-08-21T13:26:19;30.40;92.50
31725;DHT22;18306;40.960;14.836;2022-08-21T13:28:48;30.30;92.90
31725;DHT22;18306;40.960;14.836;2022-08-21T13:31:22;30.10;94.60
31725;DHT22;18306;40.960;14.836;2022-08-21T13:33:51;29.90;94.90
31725;DHT22;18306;40.960;14.836;2022-08-21T13:36:25;29.70;95.00
31725;DHT22;18306;40.960;14.836;2022-08-21T13:38:54;29.50;97.10
31725;DHT22;18306;40.960;14.836;2022-08-21T13:41:28;29.30;97.10
31725;DHT22;18306;40.960;14.836;2022-08-21T13:44:03;29.00;97.80
31725;DHT22;18306;40.960;14.836;2022-08-21T13:46:36;28.80;98.10
31725;DHT22;18306;40.960;14.836;2022-08-21T13:49:05;28.60;99.20
31725;DHT22;18306;40.960;14.836;2022-08-21T13:51:35;28.50;99.90
31725;DHT22;18306;40.960;14.836;2022-08-21T13:54:27;28.30;99.90
31725;DHT22;18306;40.960;14.836;2022-08-21T13:56:58;28.10;99.90
31725;DHT22;18306;40.960;14.836;2022-08-21T13:59:32;27.90;99.90
31725;DHT22;18306;40.960;14.836;2022-08-21T14:02:17;27.80;99.90
31725;DHT22;18306;40.960;14.836;2022-08-21T14:04:54;27.60;99.90
31725;DHT22;18306;40.960;14.836;2022-08-21T14:07:38;27.50;99.90
31725;DHT22;18306;40.960;14.836;2022-08-21T14:10:20;27.30;99.90
31725;DHT22;18306;40.960;14.836;2022-08-21T14:13:00;27.10;99.90
31725;DHT22;18306;40.960;14.836;2022-08-21T14:15:32;27.00;99.90
31725;DHT22;18306;40.960;14.836;2022-08-21T14:18:15;26.80;99.90
31725;DHT22;18306;40.960;14.836;2022-08-21T14:20:45;26.70;99.90
31725;DHT22;18306;40.960;14.836;2022-08-21T14:23:25;26.60;99.90
31725;DHT22;18306;40.960;14.836;2022-08-21T14:25:53;26.50;99.90
31725;DHT22;18306;40.960;14.836;2022-08-21T14:28:27;26.50;99.90
31725;DHT22;18306;40.960;14.836;2022-08-21T14:30:57;26.30;99.90
31725;DHT22;18306;40.960;14.836;2022-08-21T14:33:28;26.10;99.90
31725;DHT22;18306;40.960;14.836;2022-08-21T14:35:56;26.30;99.90
31725;DHT22;18306;40.960;14.836;2022-08-21T14:38:25;26.30;99.90
31725;DHT22;18306;40.960;14.836;2022-08-21T14:40:56;26.20;99.90
31725;DHT22;18306;40.960;14.836;2022-08-21T14:43:27;26.30;99.90
31725;DHT22;18306;40.960;14.836;2022-08-21T14:46:03;26.40;99.90
31725;DHT22;18306;40.960;14.836;2022-08-21T14:48:30;26.50;99.90
31725;DHT22;18306;40.960;14.836;2022-08-21T14:50:57;26.50;99.90
31725;DHT22;18306;40.960;14.836;2022-08-21T14:53:26;26.50;99.90
31725;DHT22;18306;40.960;14.836;2022-08-21T14:55:56;26.60;99.90
31725;DHT22;18306;40.960;14.836;2022-08-21T14:58:43;26.60;99.90
31725;DHT22;18306;40.960;14.836;2022-08-21T15:01:18;26.90;99.90
31725;DHT22;18306;40.960;14.836;2022-08-21T15:04:21;27.10;99.90
31725;DHT22;18306;40.960;14.836;2022-08-21T15:06:49;27.30;99.90
31725;DHT22;18306;40.960;14.836;2022-08-21T15:09:17;27.40;99.90
31725;DHT22;18306;40.960;14.836;2022-08-21T15:11:45;27.60;99.90
31725;DHT22;18306;40.960;14.836;2022-08-21T15:14:18;27.70;99.90
31725;DHT22;18306;40.960;14.836;2022-08-21T15:16:48;27.90;99.90
31725;DHT22;18306;40.960;14.836;2022-08-21T15:19:17;27.90;99.90
31725;DHT22;18306;40.960;14.836;2022-08-21T15:21:50;27.80;99.90
31725;DHT22;18306;40.960;14.836;2022-08-21T15:24:19;28.00;99.90
31725;DHT22;18306;40.960;14.836;2022-08-21T15:26:48;28.10;99.90
31725;DHT22;18306;40.960;14.836;2022-08-21T15:29:16;28.10;99.90
31725;DHT22;18306;40.960;14.836;2022-08-21T15:31:54;28.10;99.90
31725;DHT22;18306;40.960;14.836;2022-08-21T15:34:22;28.00;99.90
31725;DHT22;18306;40.960;14.836;2022-08-21T15:36:49;28.10;99.90
31725;DHT22;18306;40.960;14.836;2022-08-21T15:39:17;27.90;99.90
31725;DHT22;18306;40.960;14.836;2022-08-21T15:41:45;27.80;99.90
31725;DHT22;18306;40.960;14.836;2022-08-21T15:44:13;27.90;99.90
31725;DHT22;18306;40.960;14.836;2022-08-21T15:46:41;27.80;99.90
31725;DHT22;18306;40.960;14.836;2022-08-21T15:49:09;27.80;99.90
31725;DHT22;18306;40.960;14.836;2022-08-21T15:51:41;27.70;99.90
31725;DHT22;18306;40.960;14.836;2022-08-21T15:54:10;27.70;99.90
31725;DHT22;18306;40.960;14.836;2022-08-21T15:56:49;27.70;99.90
31725;DHT22;18306;40.960;14.836;2022-08-21T15:59:21;27.70;99.90
31725;DHT22;18306;40.960;14.836;2022-08-21T16:01:52;27.70;99.90
31725;DHT22;18306;40.960;14.836;2022-08-21T16:04:25;27.70;99.90
31725;DHT22;18306;40.960;14.836;2022-08-21T16:06:53;27.70;99.90
31725;DHT22;18306;40.960;14.836;2022-08-21T16:09:21;27.80;99.90
31725;DHT22;18306;40.960;14.836;2022-08-21T16:11:48;27.80;99.90
31725;DHT22;18306;40.960;14.836;2022-08-21T16:14:16;27.80;99.90
31725;DHT22;18306;40.960;14.836;2022-08-21T16:16:44;27.80;99.90
31725;DHT22;18306;40.960;14.836;2022-08-21T16:19:13;27.80;99.90
31725;DHT22;18306;40.960;14.836;2022-08-21T16:21:40;27.80;99.90
31725;DHT22;18306;40.960;14.836;2022-08-21T16:24:08;27.70;99.90
31725;DHT22;18306;40.960;14.836;2022-08-21T16:26:35;27.70;99.90
31725;DHT22;18306;40.960;14.836;2022-08-21T16:29:03;27.60;99.90
31725;DHT22;18306;40.960;14.836;2022-08-21T16:31:31;27.60;99.90
31725;DHT22;18306;40.960;14.836;2022-08-21T16:34:00;27.60;99.90
31725;DHT22;18306;40.960;14.836;2022-08-21T16:36:28;27.50;99.90
31725;DHT22;18306;40.960;14.836;2022-08-21T16:38:56;27.50;99.90
31725;DHT22;18306;40.960;14.836;2022-08-21T16:41:27;27.50;99.90
31725;DHT22;18306;40.960;14.836;2022-08-21T16:43:55;27.40;99.90
31725;DHT22;18306;40.960;14.836;2022-08-21T16:46:22;27.50;99.90
31725;DHT22;18306;40.960;14.836;2022-08-21T16:48:53;27.50;99.90
31725;DHT22;18306;40.960;14.836;2022-08-21T16:51:20;27.40;99.90
31725;DHT22;18306;40.960;14.836;2022-08-21T16:53:47;27.40;99.90
31725;DHT22;18306;40.960;14.836;2022-08-21T16:56:16;27.30;99.90
31725;DHT22;18306;40.960;14.836;2022-08-21T16:58:53;27.10;99.90
31725;DHT22;18306;40.960;14.836;2022-08-21T17:01:24;26.90;99.90
31725;DHT22;18306;40.960;14.836;2022-08-21T17:03:52;26.70;99.90